<?xml version="1.0" encoding="UTF-8" standalone="no" ?>
<gpx xmlns="http://www.topografix.com/GPX/1/1" xmlns:xsi="http://www.w3.org/2001/XMLSchema-instance" xsi:schemaLocation="http://www.topografix.com/GPX/1/1 http://www.topografix.com/GPX/1/1/gpx.xsd" version="1.1" creator="VisuGPX - https://www.visugpx.com">
  <metadata>
    <name>croix de verse</name>
    <desc><![CDATA[sur le flan du jérusalem]]></desc>
  </metadata>
  <trk>
    <name><![CDATA[19 févr. 2013 10:38:30]]></name>
    <cmt><![CDATA[19 févr. 2013 10:38:30]]></cmt>
    <trkseg>
      <trkpt lat="43.83128" lon="6.97328">
        <ele>1387</ele>
        <time>2013-02-19T09:38:31Z</time>
      </trkpt>
      <trkpt lat="43.83124" lon="6.97323">
        <ele>1387</ele>
        <time>2013-02-19T09:40:09Z</time>
      </trkpt>
      <trkpt lat="43.83119" lon="6.97335">
        <ele>1388</ele>
        <time>2013-02-19T09:41:47Z</time>
      </trkpt>
      <trkpt lat="43.83109" lon="6.97345">
        <ele>1388</ele>
        <time>2013-02-19T09:42:14Z</time>
      </trkpt>
      <trkpt lat="43.83108" lon="6.97344">
        <ele>1389</ele>
        <time>2013-02-19T09:46:09Z</time>
      </trkpt>
      <trkpt lat="43.83094" lon="6.97361">
        <ele>1390</ele>
        <time>2013-02-19T09:46:48Z</time>
      </trkpt>
      <trkpt lat="43.83075" lon="6.97399">
        <ele>1395</ele>
        <time>2013-02-19T09:47:24Z</time>
      </trkpt>
      <trkpt lat="43.83046" lon="6.97435">
        <ele>1427.8</ele>
        <time>2013-02-19T09:48:16Z</time>
      </trkpt>
      <trkpt lat="43.83013" lon="6.97448">
        <ele>1400</ele>
        <time>2013-02-19T09:48:40Z</time>
      </trkpt>
      <trkpt lat="43.83004" lon="6.97449">
        <ele>1400</ele>
        <time>2013-02-19T09:48:47Z</time>
      </trkpt>
      <trkpt lat="43.82994" lon="6.97448">
        <ele>1400</ele>
        <time>2013-02-19T09:48:55Z</time>
      </trkpt>
      <trkpt lat="43.82979" lon="6.97447">
        <ele>1401</ele>
        <time>2013-02-19T09:49:10Z</time>
      </trkpt>
      <trkpt lat="43.82968" lon="6.97445">
        <ele>1401</ele>
        <time>2013-02-19T09:49:21Z</time>
      </trkpt>
      <trkpt lat="43.82958" lon="6.9744">
        <ele>1400</ele>
        <time>2013-02-19T09:49:30Z</time>
      </trkpt>
      <trkpt lat="43.82939" lon="6.97429">
        <ele>1400</ele>
        <time>2013-02-19T09:49:53Z</time>
      </trkpt>
      <trkpt lat="43.82926" lon="6.97414">
        <ele>1399</ele>
        <time>2013-02-19T09:50:08Z</time>
      </trkpt>
      <trkpt lat="43.82913" lon="6.974">
        <ele>1399</ele>
        <time>2013-02-19T09:50:26Z</time>
      </trkpt>
      <trkpt lat="43.82905" lon="6.97394">
        <ele>1399</ele>
        <time>2013-02-19T09:50:33Z</time>
      </trkpt>
      <trkpt lat="43.82897" lon="6.97393">
        <ele>1399</ele>
        <time>2013-02-19T09:50:42Z</time>
      </trkpt>
      <trkpt lat="43.8289" lon="6.97401">
        <ele>1399</ele>
        <time>2013-02-19T09:50:53Z</time>
      </trkpt>
      <trkpt lat="43.82884" lon="6.9741">
        <ele>1399</ele>
        <time>2013-02-19T09:51:02Z</time>
      </trkpt>
      <trkpt lat="43.82878" lon="6.9742">
        <ele>1399</ele>
        <time>2013-02-19T09:51:11Z</time>
      </trkpt>
      <trkpt lat="43.82872" lon="6.97434">
        <ele>1398</ele>
        <time>2013-02-19T09:51:21Z</time>
      </trkpt>
      <trkpt lat="43.82873" lon="6.97447">
        <ele>1398</ele>
        <time>2013-02-19T09:51:30Z</time>
      </trkpt>
      <trkpt lat="43.82882" lon="6.97467">
        <ele>1398</ele>
        <time>2013-02-19T09:51:54Z</time>
      </trkpt>
      <trkpt lat="43.82893" lon="6.97467">
        <ele>1397</ele>
        <time>2013-02-19T09:52:17Z</time>
      </trkpt>
      <trkpt lat="43.82909" lon="6.97471">
        <ele>1396</ele>
        <time>2013-02-19T09:52:31Z</time>
      </trkpt>
      <trkpt lat="43.82925" lon="6.9748">
        <ele>1395</ele>
        <time>2013-02-19T09:52:43Z</time>
      </trkpt>
      <trkpt lat="43.82941" lon="6.97495">
        <ele>1394</ele>
        <time>2013-02-19T09:52:54Z</time>
      </trkpt>
      <trkpt lat="43.82953" lon="6.9751">
        <ele>1392</ele>
        <time>2013-02-19T09:53:08Z</time>
      </trkpt>
      <trkpt lat="43.82963" lon="6.97528">
        <ele>1391</ele>
        <time>2013-02-19T09:53:20Z</time>
      </trkpt>
      <trkpt lat="43.82965" lon="6.9755">
        <ele>1391</ele>
        <time>2013-02-19T09:53:34Z</time>
      </trkpt>
      <trkpt lat="43.82976" lon="6.97567">
        <ele>1393</ele>
        <time>2013-02-19T09:54:46Z</time>
      </trkpt>
      <trkpt lat="43.82973" lon="6.97582">
        <ele>1396</ele>
        <time>2013-02-19T09:55:01Z</time>
      </trkpt>
      <trkpt lat="43.82958" lon="6.97586">
        <ele>1398</ele>
        <time>2013-02-19T09:55:18Z</time>
      </trkpt>
      <trkpt lat="43.82949" lon="6.97582">
        <ele>1399</ele>
        <time>2013-02-19T09:55:26Z</time>
      </trkpt>
      <trkpt lat="43.82942" lon="6.97575">
        <ele>1401</ele>
        <time>2013-02-19T09:55:34Z</time>
      </trkpt>
      <trkpt lat="43.82935" lon="6.97567">
        <ele>1403</ele>
        <time>2013-02-19T09:55:44Z</time>
      </trkpt>
      <trkpt lat="43.82932" lon="6.97563">
        <ele>1404</ele>
        <time>2013-02-19T09:55:54Z</time>
      </trkpt>
      <trkpt lat="43.82926" lon="6.97555">
        <ele>1405</ele>
        <time>2013-02-19T09:55:59Z</time>
      </trkpt>
      <trkpt lat="43.82918" lon="6.97543">
        <ele>1407</ele>
        <time>2013-02-19T09:56:14Z</time>
      </trkpt>
      <trkpt lat="43.82909" lon="6.97537">
        <ele>1408</ele>
        <time>2013-02-19T09:56:25Z</time>
      </trkpt>
      <trkpt lat="43.82901" lon="6.97536">
        <ele>1409</ele>
        <time>2013-02-19T09:56:33Z</time>
      </trkpt>
      <trkpt lat="43.82892" lon="6.97539">
        <ele>1410</ele>
        <time>2013-02-19T09:56:43Z</time>
      </trkpt>
      <trkpt lat="43.82884" lon="6.9755">
        <ele>1411</ele>
        <time>2013-02-19T09:56:57Z</time>
      </trkpt>
      <trkpt lat="43.82882" lon="6.97562">
        <ele>1411</ele>
        <time>2013-02-19T09:57:07Z</time>
      </trkpt>
      <trkpt lat="43.82883" lon="6.97574">
        <ele>1411</ele>
        <time>2013-02-19T09:57:17Z</time>
      </trkpt>
      <trkpt lat="43.82892" lon="6.97588">
        <ele>1411</ele>
        <time>2013-02-19T09:57:37Z</time>
      </trkpt>
      <trkpt lat="43.82899" lon="6.97598">
        <ele>1412</ele>
        <time>2013-02-19T09:57:43Z</time>
      </trkpt>
      <trkpt lat="43.82907" lon="6.97607">
        <ele>1413</ele>
        <time>2013-02-19T09:57:52Z</time>
      </trkpt>
      <trkpt lat="43.82911" lon="6.97622">
        <ele>1413</ele>
        <time>2013-02-19T09:58:05Z</time>
      </trkpt>
      <trkpt lat="43.82912" lon="6.97638">
        <ele>1414</ele>
        <time>2013-02-19T09:58:16Z</time>
      </trkpt>
      <trkpt lat="43.82909" lon="6.97652">
        <ele>1415</ele>
        <time>2013-02-19T09:58:27Z</time>
      </trkpt>
      <trkpt lat="43.82904" lon="6.97661">
        <ele>1416</ele>
        <time>2013-02-19T09:58:35Z</time>
      </trkpt>
      <trkpt lat="43.82898" lon="6.97671">
        <ele>1417</ele>
        <time>2013-02-19T09:58:43Z</time>
      </trkpt>
      <trkpt lat="43.82891" lon="6.97681">
        <ele>1418</ele>
        <time>2013-02-19T09:58:53Z</time>
      </trkpt>
      <trkpt lat="43.82886" lon="6.97697">
        <ele>1422</ele>
        <time>2013-02-19T10:03:12Z</time>
      </trkpt>
      <trkpt lat="43.82879" lon="6.97708">
        <ele>1423</ele>
        <time>2013-02-19T10:03:24Z</time>
      </trkpt>
      <trkpt lat="43.82872" lon="6.97719">
        <ele>1424</ele>
        <time>2013-02-19T10:03:35Z</time>
      </trkpt>
      <trkpt lat="43.82863" lon="6.97732">
        <ele>1425</ele>
        <time>2013-02-19T10:03:49Z</time>
      </trkpt>
      <trkpt lat="43.82858" lon="6.97743">
        <ele>1424</ele>
        <time>2013-02-19T10:04:00Z</time>
      </trkpt>
      <trkpt lat="43.82859" lon="6.97756">
        <ele>1424</ele>
        <time>2013-02-19T10:04:11Z</time>
      </trkpt>
      <trkpt lat="43.82865" lon="6.97769">
        <ele>1423</ele>
        <time>2013-02-19T10:04:27Z</time>
      </trkpt>
      <trkpt lat="43.82867" lon="6.97781">
        <ele>1424</ele>
        <time>2013-02-19T10:04:39Z</time>
      </trkpt>
      <trkpt lat="43.82866" lon="6.97794">
        <ele>1424</ele>
        <time>2013-02-19T10:04:48Z</time>
      </trkpt>
      <trkpt lat="43.82864" lon="6.97809">
        <ele>1424</ele>
        <time>2013-02-19T10:05:01Z</time>
      </trkpt>
      <trkpt lat="43.82862" lon="6.97823">
        <ele>1425</ele>
        <time>2013-02-19T10:05:13Z</time>
      </trkpt>
      <trkpt lat="43.82861" lon="6.97834">
        <ele>1425</ele>
        <time>2013-02-19T10:05:23Z</time>
      </trkpt>
      <trkpt lat="43.82859" lon="6.97848">
        <ele>1425</ele>
        <time>2013-02-19T10:05:34Z</time>
      </trkpt>
      <trkpt lat="43.82855" lon="6.97858">
        <ele>1425</ele>
        <time>2013-02-19T10:05:42Z</time>
      </trkpt>
      <trkpt lat="43.82845" lon="6.97864">
        <ele>1426</ele>
        <time>2013-02-19T10:06:03Z</time>
      </trkpt>
      <trkpt lat="43.82845" lon="6.97871">
        <ele>1428</ele>
        <time>2013-02-19T10:06:53Z</time>
      </trkpt>
      <trkpt lat="43.82836" lon="6.97876">
        <ele>1429</ele>
        <time>2013-02-19T10:07:17Z</time>
      </trkpt>
      <trkpt lat="43.82828" lon="6.97881">
        <ele>1430</ele>
        <time>2013-02-19T10:07:26Z</time>
      </trkpt>
      <trkpt lat="43.8282" lon="6.97885">
        <ele>1431</ele>
        <time>2013-02-19T10:07:37Z</time>
      </trkpt>
      <trkpt lat="43.82812" lon="6.97893">
        <ele>1431</ele>
        <time>2013-02-19T10:07:48Z</time>
      </trkpt>
      <trkpt lat="43.82796" lon="6.97905">
        <ele>1431</ele>
        <time>2013-02-19T10:08:06Z</time>
      </trkpt>
      <trkpt lat="43.82789" lon="6.97924">
        <ele>1431</ele>
        <time>2013-02-19T10:08:31Z</time>
      </trkpt>
      <trkpt lat="43.82785" lon="6.97946">
        <ele>1432</ele>
        <time>2013-02-19T10:09:06Z</time>
      </trkpt>
      <trkpt lat="43.82773" lon="6.97967">
        <ele>1433</ele>
        <time>2013-02-19T10:09:29Z</time>
      </trkpt>
      <trkpt lat="43.82767" lon="6.97976">
        <ele>1435</ele>
        <time>2013-02-19T10:09:41Z</time>
      </trkpt>
      <trkpt lat="43.82758" lon="6.97995">
        <ele>1437</ele>
        <time>2013-02-19T10:10:03Z</time>
      </trkpt>
      <trkpt lat="43.82752" lon="6.98015">
        <ele>1439</ele>
        <time>2013-02-19T10:10:25Z</time>
      </trkpt>
      <trkpt lat="43.82745" lon="6.98037">
        <ele>1441</ele>
        <time>2013-02-19T10:10:52Z</time>
      </trkpt>
      <trkpt lat="43.82742" lon="6.9806">
        <ele>1442</ele>
        <time>2013-02-19T10:11:09Z</time>
      </trkpt>
      <trkpt lat="43.8274" lon="6.98072">
        <ele>1444</ele>
        <time>2013-02-19T10:11:17Z</time>
      </trkpt>
      <trkpt lat="43.8274" lon="6.98084">
        <ele>1445</ele>
        <time>2013-02-19T10:11:25Z</time>
      </trkpt>
      <trkpt lat="43.82734" lon="6.98096">
        <ele>1446</ele>
        <time>2013-02-19T10:11:39Z</time>
      </trkpt>
      <trkpt lat="43.82726" lon="6.981">
        <ele>1446</ele>
        <time>2013-02-19T10:11:49Z</time>
      </trkpt>
      <trkpt lat="43.82718" lon="6.98104">
        <ele>1447</ele>
        <time>2013-02-19T10:11:58Z</time>
      </trkpt>
      <trkpt lat="43.82712" lon="6.98112">
        <ele>1447</ele>
        <time>2013-02-19T10:12:07Z</time>
      </trkpt>
      <trkpt lat="43.82705" lon="6.9812">
        <ele>1447</ele>
        <time>2013-02-19T10:12:17Z</time>
      </trkpt>
      <trkpt lat="43.82699" lon="6.98126">
        <ele>1447</ele>
        <time>2013-02-19T10:13:04Z</time>
      </trkpt>
      <trkpt lat="43.82691" lon="6.9813">
        <ele>1447</ele>
        <time>2013-02-19T10:13:11Z</time>
      </trkpt>
      <trkpt lat="43.82681" lon="6.98133">
        <ele>1448</ele>
        <time>2013-02-19T10:13:19Z</time>
      </trkpt>
      <trkpt lat="43.82673" lon="6.98138">
        <ele>1448</ele>
        <time>2013-02-19T10:13:27Z</time>
      </trkpt>
      <trkpt lat="43.82658" lon="6.98142">
        <ele>1449</ele>
        <time>2013-02-19T10:13:40Z</time>
      </trkpt>
      <trkpt lat="43.82649" lon="6.98143">
        <ele>1450</ele>
        <time>2013-02-19T10:13:47Z</time>
      </trkpt>
      <trkpt lat="43.82639" lon="6.98143">
        <ele>1450</ele>
        <time>2013-02-19T10:13:53Z</time>
      </trkpt>
      <trkpt lat="43.82628" lon="6.98143">
        <ele>1450</ele>
        <time>2013-02-19T10:14:03Z</time>
      </trkpt>
      <trkpt lat="43.82616" lon="6.98141">
        <ele>1451</ele>
        <time>2013-02-19T10:14:32Z</time>
      </trkpt>
      <trkpt lat="43.82604" lon="6.98146">
        <ele>1452</ele>
        <time>2013-02-19T10:15:13Z</time>
      </trkpt>
      <trkpt lat="43.82596" lon="6.98148">
        <ele>1453</ele>
        <time>2013-02-19T10:15:28Z</time>
      </trkpt>
      <trkpt lat="43.82583" lon="6.98152">
        <ele>1453</ele>
        <time>2013-02-19T10:15:46Z</time>
      </trkpt>
      <trkpt lat="43.82576" lon="6.98158">
        <ele>1454</ele>
        <time>2013-02-19T10:16:00Z</time>
      </trkpt>
      <trkpt lat="43.82566" lon="6.98163">
        <ele>1455</ele>
        <time>2013-02-19T10:16:19Z</time>
      </trkpt>
      <trkpt lat="43.82554" lon="6.98166">
        <ele>1456</ele>
        <time>2013-02-19T10:16:37Z</time>
      </trkpt>
      <trkpt lat="43.82545" lon="6.98168">
        <ele>1458</ele>
        <time>2013-02-19T10:16:51Z</time>
      </trkpt>
      <trkpt lat="43.82537" lon="6.98171">
        <ele>1459</ele>
        <time>2013-02-19T10:17:04Z</time>
      </trkpt>
      <trkpt lat="43.82529" lon="6.98172">
        <ele>1460</ele>
        <time>2013-02-19T10:17:16Z</time>
      </trkpt>
      <trkpt lat="43.82517" lon="6.98176">
        <ele>1462</ele>
        <time>2013-02-19T10:17:37Z</time>
      </trkpt>
      <trkpt lat="43.82507" lon="6.98178">
        <ele>1463</ele>
        <time>2013-02-19T10:17:52Z</time>
      </trkpt>
      <trkpt lat="43.82498" lon="6.98181">
        <ele>1465</ele>
        <time>2013-02-19T10:18:08Z</time>
      </trkpt>
      <trkpt lat="43.82485" lon="6.98183">
        <ele>1467</ele>
        <time>2013-02-19T10:19:04Z</time>
      </trkpt>
      <trkpt lat="43.82477" lon="6.9819">
        <ele>1467</ele>
        <time>2013-02-19T10:19:15Z</time>
      </trkpt>
      <trkpt lat="43.82469" lon="6.98196">
        <ele>1467</ele>
        <time>2013-02-19T10:19:26Z</time>
      </trkpt>
      <trkpt lat="43.82462" lon="6.98203">
        <ele>1468</ele>
        <time>2013-02-19T10:19:38Z</time>
      </trkpt>
      <trkpt lat="43.82455" lon="6.9821">
        <ele>1470</ele>
        <time>2013-02-19T10:19:51Z</time>
      </trkpt>
      <trkpt lat="43.82447" lon="6.98218">
        <ele>1470</ele>
        <time>2013-02-19T10:20:04Z</time>
      </trkpt>
      <trkpt lat="43.82447" lon="6.9823">
        <ele>1472</ele>
        <time>2013-02-19T10:20:14Z</time>
      </trkpt>
      <trkpt lat="43.82449" lon="6.98245">
        <ele>1473</ele>
        <time>2013-02-19T10:20:29Z</time>
      </trkpt>
      <trkpt lat="43.82446" lon="6.98259">
        <ele>1473</ele>
        <time>2013-02-19T10:20:42Z</time>
      </trkpt>
      <trkpt lat="43.82438" lon="6.98272">
        <ele>1474</ele>
        <time>2013-02-19T10:20:56Z</time>
      </trkpt>
      <trkpt lat="43.82431" lon="6.98282">
        <ele>1475</ele>
        <time>2013-02-19T10:21:06Z</time>
      </trkpt>
      <trkpt lat="43.82424" lon="6.98294">
        <ele>1477</ele>
        <time>2013-02-19T10:21:17Z</time>
      </trkpt>
      <trkpt lat="43.82416" lon="6.98308">
        <ele>1478</ele>
        <time>2013-02-19T10:21:31Z</time>
      </trkpt>
      <trkpt lat="43.82413" lon="6.98319">
        <ele>1480</ele>
        <time>2013-02-19T10:21:41Z</time>
      </trkpt>
      <trkpt lat="43.82411" lon="6.98331">
        <ele>1481</ele>
        <time>2013-02-19T10:21:53Z</time>
      </trkpt>
      <trkpt lat="43.8241" lon="6.98343">
        <ele>1482</ele>
        <time>2013-02-19T10:22:03Z</time>
      </trkpt>
      <trkpt lat="43.82407" lon="6.98357">
        <ele>1483</ele>
        <time>2013-02-19T10:22:14Z</time>
      </trkpt>
      <trkpt lat="43.82405" lon="6.98368">
        <ele>1484</ele>
        <time>2013-02-19T10:22:25Z</time>
      </trkpt>
      <trkpt lat="43.82401" lon="6.9838">
        <ele>1484</ele>
        <time>2013-02-19T10:22:46Z</time>
      </trkpt>
      <trkpt lat="43.824" lon="6.98395">
        <ele>1485</ele>
        <time>2013-02-19T10:23:02Z</time>
      </trkpt>
      <trkpt lat="43.824" lon="6.98397">
        <ele>1486</ele>
        <time>2013-02-19T10:23:54Z</time>
      </trkpt>
      <trkpt lat="43.82393" lon="6.98415">
        <ele>1484</ele>
        <time>2013-02-19T10:26:15Z</time>
      </trkpt>
      <trkpt lat="43.82392" lon="6.98427">
        <ele>1484</ele>
        <time>2013-02-19T10:26:23Z</time>
      </trkpt>
      <trkpt lat="43.82391" lon="6.98439">
        <ele>1485</ele>
        <time>2013-02-19T10:26:31Z</time>
      </trkpt>
      <trkpt lat="43.82392" lon="6.98452">
        <ele>1485</ele>
        <time>2013-02-19T10:26:43Z</time>
      </trkpt>
      <trkpt lat="43.82391" lon="6.98467">
        <ele>1484</ele>
        <time>2013-02-19T10:26:56Z</time>
      </trkpt>
      <trkpt lat="43.82388" lon="6.98489">
        <ele>1485</ele>
        <time>2013-02-19T10:27:29Z</time>
      </trkpt>
      <trkpt lat="43.82385" lon="6.98501">
        <ele>1486</ele>
        <time>2013-02-19T10:27:39Z</time>
      </trkpt>
      <trkpt lat="43.82382" lon="6.98514">
        <ele>1486</ele>
        <time>2013-02-19T10:27:49Z</time>
      </trkpt>
      <trkpt lat="43.82384" lon="6.98532">
        <ele>1487</ele>
        <time>2013-02-19T10:27:58Z</time>
      </trkpt>
      <trkpt lat="43.82384" lon="6.98545">
        <ele>1487</ele>
        <time>2013-02-19T10:28:05Z</time>
      </trkpt>
      <trkpt lat="43.82383" lon="6.98557">
        <ele>1488</ele>
        <time>2013-02-19T10:28:12Z</time>
      </trkpt>
      <trkpt lat="43.82382" lon="6.98569">
        <ele>1488</ele>
        <time>2013-02-19T10:28:20Z</time>
      </trkpt>
      <trkpt lat="43.8238" lon="6.98586">
        <ele>1488</ele>
        <time>2013-02-19T10:28:32Z</time>
      </trkpt>
      <trkpt lat="43.82379" lon="6.98598">
        <ele>1489</ele>
        <time>2013-02-19T10:28:43Z</time>
      </trkpt>
      <trkpt lat="43.82382" lon="6.98614">
        <ele>1489</ele>
        <time>2013-02-19T10:28:54Z</time>
      </trkpt>
      <trkpt lat="43.8238" lon="6.98626">
        <ele>1490</ele>
        <time>2013-02-19T10:29:03Z</time>
      </trkpt>
      <trkpt lat="43.82372" lon="6.98634">
        <ele>1490</ele>
        <time>2013-02-19T10:29:15Z</time>
      </trkpt>
      <trkpt lat="43.82373" lon="6.98654">
        <ele>1491</ele>
        <time>2013-02-19T10:29:31Z</time>
      </trkpt>
      <trkpt lat="43.82375" lon="6.98665">
        <ele>1492</ele>
        <time>2013-02-19T10:29:39Z</time>
      </trkpt>
      <trkpt lat="43.82377" lon="6.98687">
        <ele>1493</ele>
        <time>2013-02-19T10:29:55Z</time>
      </trkpt>
      <trkpt lat="43.82377" lon="6.98699">
        <ele>1494</ele>
        <time>2013-02-19T10:30:03Z</time>
      </trkpt>
      <trkpt lat="43.8238" lon="6.98721">
        <ele>1494</ele>
        <time>2013-02-19T10:30:18Z</time>
      </trkpt>
      <trkpt lat="43.82383" lon="6.98742">
        <ele>1495</ele>
        <time>2013-02-19T10:30:31Z</time>
      </trkpt>
      <trkpt lat="43.82384" lon="6.98755">
        <ele>1495</ele>
        <time>2013-02-19T10:30:38Z</time>
      </trkpt>
      <trkpt lat="43.82389" lon="6.98768">
        <ele>1495</ele>
        <time>2013-02-19T10:30:47Z</time>
      </trkpt>
      <trkpt lat="43.82395" lon="6.98785">
        <ele>1496</ele>
        <time>2013-02-19T10:30:59Z</time>
      </trkpt>
      <trkpt lat="43.82399" lon="6.98798">
        <ele>1496</ele>
        <time>2013-02-19T10:31:08Z</time>
      </trkpt>
      <trkpt lat="43.824" lon="6.98812">
        <ele>1496</ele>
        <time>2013-02-19T10:31:17Z</time>
      </trkpt>
      <trkpt lat="43.82398" lon="6.98824">
        <ele>1496</ele>
        <time>2013-02-19T10:31:25Z</time>
      </trkpt>
      <trkpt lat="43.82401" lon="6.98833">
        <ele>1495</ele>
        <time>2013-02-19T10:31:58Z</time>
      </trkpt>
      <trkpt lat="43.82396" lon="6.98845">
        <ele>1495</ele>
        <time>2013-02-19T10:32:11Z</time>
      </trkpt>
      <trkpt lat="43.82392" lon="6.98858">
        <ele>1495</ele>
        <time>2013-02-19T10:32:24Z</time>
      </trkpt>
      <trkpt lat="43.82394" lon="6.98871">
        <ele>1495</ele>
        <time>2013-02-19T10:32:37Z</time>
      </trkpt>
      <trkpt lat="43.82396" lon="6.98885">
        <ele>1495</ele>
        <time>2013-02-19T10:32:52Z</time>
      </trkpt>
      <trkpt lat="43.82396" lon="6.98898">
        <ele>1495</ele>
        <time>2013-02-19T10:33:02Z</time>
      </trkpt>
      <trkpt lat="43.82396" lon="6.9891">
        <ele>1495</ele>
        <time>2013-02-19T10:33:11Z</time>
      </trkpt>
      <trkpt lat="43.82394" lon="6.98922">
        <ele>1496</ele>
        <time>2013-02-19T10:33:20Z</time>
      </trkpt>
      <trkpt lat="43.82389" lon="6.98933">
        <ele>1496</ele>
        <time>2013-02-19T10:33:29Z</time>
      </trkpt>
      <trkpt lat="43.82384" lon="6.98943">
        <ele>1497</ele>
        <time>2013-02-19T10:33:39Z</time>
      </trkpt>
      <trkpt lat="43.82378" lon="6.98952">
        <ele>1497</ele>
        <time>2013-02-19T10:33:48Z</time>
      </trkpt>
      <trkpt lat="43.82368" lon="6.98967">
        <ele>1498</ele>
        <time>2013-02-19T10:34:03Z</time>
      </trkpt>
      <trkpt lat="43.82361" lon="6.98977">
        <ele>1499</ele>
        <time>2013-02-19T10:34:12Z</time>
      </trkpt>
      <trkpt lat="43.82358" lon="6.98993">
        <ele>1499</ele>
        <time>2013-02-19T10:34:23Z</time>
      </trkpt>
      <trkpt lat="43.82355" lon="6.99004">
        <ele>1500</ele>
        <time>2013-02-19T10:34:32Z</time>
      </trkpt>
      <trkpt lat="43.82352" lon="6.99015">
        <ele>1501</ele>
        <time>2013-02-19T10:34:40Z</time>
      </trkpt>
      <trkpt lat="43.8235" lon="6.99026">
        <ele>1502</ele>
        <time>2013-02-19T10:34:49Z</time>
      </trkpt>
      <trkpt lat="43.82349" lon="6.99039">
        <ele>1502</ele>
        <time>2013-02-19T10:34:59Z</time>
      </trkpt>
      <trkpt lat="43.82349" lon="6.99051">
        <ele>1502</ele>
        <time>2013-02-19T10:35:08Z</time>
      </trkpt>
      <trkpt lat="43.82348" lon="6.99063">
        <ele>1503</ele>
        <time>2013-02-19T10:35:17Z</time>
      </trkpt>
      <trkpt lat="43.82346" lon="6.99075">
        <ele>1503</ele>
        <time>2013-02-19T10:35:28Z</time>
      </trkpt>
      <trkpt lat="43.82343" lon="6.99086">
        <ele>1503</ele>
        <time>2013-02-19T10:35:37Z</time>
      </trkpt>
      <trkpt lat="43.82338" lon="6.99096">
        <ele>1504</ele>
        <time>2013-02-19T10:35:46Z</time>
      </trkpt>
      <trkpt lat="43.82334" lon="6.9911">
        <ele>1504</ele>
        <time>2013-02-19T10:35:58Z</time>
      </trkpt>
      <trkpt lat="43.8233" lon="6.99121">
        <ele>1505</ele>
        <time>2013-02-19T10:36:07Z</time>
      </trkpt>
      <trkpt lat="43.82325" lon="6.9913">
        <ele>1505</ele>
        <time>2013-02-19T10:36:15Z</time>
      </trkpt>
      <trkpt lat="43.82313" lon="6.99143">
        <ele>1507</ele>
        <time>2013-02-19T10:36:33Z</time>
      </trkpt>
      <trkpt lat="43.82309" lon="6.99138">
        <ele>1508</ele>
        <time>2013-02-19T10:37:24Z</time>
      </trkpt>
      <trkpt lat="43.823" lon="6.99142">
        <ele>1509</ele>
        <time>2013-02-19T10:37:35Z</time>
      </trkpt>
      <trkpt lat="43.82297" lon="6.9915">
        <ele>1508</ele>
        <time>2013-02-19T10:38:19Z</time>
      </trkpt>
      <trkpt lat="43.82291" lon="6.99161">
        <ele>1508</ele>
        <time>2013-02-19T10:39:05Z</time>
      </trkpt>
      <trkpt lat="43.82281" lon="6.99167">
        <ele>1507</ele>
        <time>2013-02-19T10:39:16Z</time>
      </trkpt>
      <trkpt lat="43.82273" lon="6.99172">
        <ele>1507</ele>
        <time>2013-02-19T10:39:25Z</time>
      </trkpt>
      <trkpt lat="43.82263" lon="6.9918">
        <ele>1506</ele>
        <time>2013-02-19T10:39:39Z</time>
      </trkpt>
      <trkpt lat="43.82256" lon="6.99185">
        <ele>1505</ele>
        <time>2013-02-19T10:40:12Z</time>
      </trkpt>
      <trkpt lat="43.82249" lon="6.99193">
        <ele>1504</ele>
        <time>2013-02-19T10:40:29Z</time>
      </trkpt>
      <trkpt lat="43.82242" lon="6.99199">
        <ele>1501</ele>
        <time>2013-02-19T10:40:38Z</time>
      </trkpt>
      <trkpt lat="43.82233" lon="6.99203">
        <ele>1500</ele>
        <time>2013-02-19T10:40:59Z</time>
      </trkpt>
      <trkpt lat="43.82228" lon="6.99204">
        <ele>1497</ele>
        <time>2013-02-19T10:42:27Z</time>
      </trkpt>
      <trkpt lat="43.8222" lon="6.99209">
        <ele>1497</ele>
        <time>2013-02-19T10:42:41Z</time>
      </trkpt>
      <trkpt lat="43.82204" lon="6.99217">
        <ele>1498</ele>
        <time>2013-02-19T10:43:02Z</time>
      </trkpt>
      <trkpt lat="43.82198" lon="6.99222">
        <ele>1499</ele>
        <time>2013-02-19T10:43:25Z</time>
      </trkpt>
      <trkpt lat="43.82183" lon="6.99217">
        <ele>1499</ele>
        <time>2013-02-19T10:43:49Z</time>
      </trkpt>
      <trkpt lat="43.82174" lon="6.99219">
        <ele>1500</ele>
        <time>2013-02-19T10:43:56Z</time>
      </trkpt>
      <trkpt lat="43.82165" lon="6.99222">
        <ele>1501</ele>
        <time>2013-02-19T10:44:05Z</time>
      </trkpt>
      <trkpt lat="43.82155" lon="6.99225">
        <ele>1502</ele>
        <time>2013-02-19T10:44:16Z</time>
      </trkpt>
      <trkpt lat="43.82144" lon="6.99229">
        <ele>1503</ele>
        <time>2013-02-19T10:44:29Z</time>
      </trkpt>
      <trkpt lat="43.82134" lon="6.99234">
        <ele>1504</ele>
        <time>2013-02-19T10:44:38Z</time>
      </trkpt>
      <trkpt lat="43.82127" lon="6.99239">
        <ele>1505</ele>
        <time>2013-02-19T10:44:48Z</time>
      </trkpt>
      <trkpt lat="43.82119" lon="6.99245">
        <ele>1506</ele>
        <time>2013-02-19T10:45:02Z</time>
      </trkpt>
      <trkpt lat="43.8211" lon="6.99253">
        <ele>1507</ele>
        <time>2013-02-19T10:45:15Z</time>
      </trkpt>
      <trkpt lat="43.82102" lon="6.99259">
        <ele>1508</ele>
        <time>2013-02-19T10:45:25Z</time>
      </trkpt>
      <trkpt lat="43.82095" lon="6.99263">
        <ele>1509</ele>
        <time>2013-02-19T10:45:38Z</time>
      </trkpt>
      <trkpt lat="43.82087" lon="6.99267">
        <ele>1510</ele>
        <time>2013-02-19T10:45:51Z</time>
      </trkpt>
      <trkpt lat="43.82079" lon="6.99269">
        <ele>1512</ele>
        <time>2013-02-19T10:46:02Z</time>
      </trkpt>
      <trkpt lat="43.82071" lon="6.99274">
        <ele>1514</ele>
        <time>2013-02-19T10:46:17Z</time>
      </trkpt>
      <trkpt lat="43.82062" lon="6.99275">
        <ele>1516</ele>
        <time>2013-02-19T10:46:29Z</time>
      </trkpt>
      <trkpt lat="43.82052" lon="6.99277">
        <ele>1518</ele>
        <time>2013-02-19T10:46:46Z</time>
      </trkpt>
      <trkpt lat="43.82043" lon="6.99278">
        <ele>1521</ele>
        <time>2013-02-19T10:46:57Z</time>
      </trkpt>
      <trkpt lat="43.82035" lon="6.99281">
        <ele>1522</ele>
        <time>2013-02-19T10:47:07Z</time>
      </trkpt>
      <trkpt lat="43.82026" lon="6.99284">
        <ele>1523</ele>
        <time>2013-02-19T10:47:18Z</time>
      </trkpt>
      <trkpt lat="43.82012" lon="6.99287">
        <ele>1525</ele>
        <time>2013-02-19T10:47:33Z</time>
      </trkpt>
      <trkpt lat="43.82003" lon="6.9929">
        <ele>1527</ele>
        <time>2013-02-19T10:47:44Z</time>
      </trkpt>
      <trkpt lat="43.81992" lon="6.99293">
        <ele>1529</ele>
        <time>2013-02-19T10:47:59Z</time>
      </trkpt>
      <trkpt lat="43.81982" lon="6.99295">
        <ele>1530</ele>
        <time>2013-02-19T10:48:11Z</time>
      </trkpt>
      <trkpt lat="43.81967" lon="6.993">
        <ele>1532</ele>
        <time>2013-02-19T10:48:34Z</time>
      </trkpt>
      <trkpt lat="43.81959" lon="6.99303">
        <ele>1534</ele>
        <time>2013-02-19T10:48:45Z</time>
      </trkpt>
      <trkpt lat="43.81943" lon="6.99303">
        <ele>1536</ele>
        <time>2013-02-19T10:49:01Z</time>
      </trkpt>
      <trkpt lat="43.81932" lon="6.99304">
        <ele>1538</ele>
        <time>2013-02-19T10:49:15Z</time>
      </trkpt>
      <trkpt lat="43.8192" lon="6.99304">
        <ele>1539</ele>
        <time>2013-02-19T10:49:26Z</time>
      </trkpt>
      <trkpt lat="43.81903" lon="6.99307">
        <ele>1542</ele>
        <time>2013-02-19T10:49:46Z</time>
      </trkpt>
      <trkpt lat="43.81897" lon="6.99317">
        <ele>1552</ele>
        <time>2013-02-19T10:53:37Z</time>
      </trkpt>
      <trkpt lat="43.81882" lon="6.99313">
        <ele>1551</ele>
        <time>2013-02-19T10:56:24Z</time>
      </trkpt>
      <trkpt lat="43.81859" lon="6.99325">
        <ele>1550</ele>
        <time>2013-02-19T10:56:52Z</time>
      </trkpt>
      <trkpt lat="43.81824" lon="6.99345">
        <ele>1551</ele>
        <time>2013-02-19T10:57:43Z</time>
      </trkpt>
      <trkpt lat="43.81814" lon="6.99353">
        <ele>1554</ele>
        <time>2013-02-19T10:58:04Z</time>
      </trkpt>
      <trkpt lat="43.81801" lon="6.99362">
        <ele>1558</ele>
        <time>2013-02-19T10:58:24Z</time>
      </trkpt>
      <trkpt lat="43.81793" lon="6.99368">
        <ele>1561</ele>
        <time>2013-02-19T10:58:38Z</time>
      </trkpt>
      <trkpt lat="43.8179" lon="6.99377">
        <ele>1563</ele>
        <time>2013-02-19T10:58:53Z</time>
      </trkpt>
      <trkpt lat="43.81787" lon="6.99398">
        <ele>1565</ele>
        <time>2013-02-19T10:59:16Z</time>
      </trkpt>
      <trkpt lat="43.81769" lon="6.99417">
        <ele>1566</ele>
        <time>2013-02-19T10:59:52Z</time>
      </trkpt>
      <trkpt lat="43.81755" lon="6.99433">
        <ele>1567</ele>
        <time>2013-02-19T11:00:27Z</time>
      </trkpt>
      <trkpt lat="43.81748" lon="6.99447">
        <ele>1568</ele>
        <time>2013-02-19T11:00:58Z</time>
      </trkpt>
      <trkpt lat="43.8174" lon="6.99456">
        <ele>1570</ele>
        <time>2013-02-19T11:01:15Z</time>
      </trkpt>
      <trkpt lat="43.81733" lon="6.99461">
        <ele>1572</ele>
        <time>2013-02-19T11:01:34Z</time>
      </trkpt>
      <trkpt lat="43.81721" lon="6.99474">
        <ele>1575</ele>
        <time>2013-02-19T11:02:03Z</time>
      </trkpt>
      <trkpt lat="43.81707" lon="6.99496">
        <ele>1582</ele>
        <time>2013-02-19T11:02:56Z</time>
      </trkpt>
      <trkpt lat="43.81698" lon="6.99511">
        <ele>1584</ele>
        <time>2013-02-19T11:03:32Z</time>
      </trkpt>
      <trkpt lat="43.81656" lon="6.99553">
        <ele>1647.5</ele>
        <time>2013-02-19T11:06:25Z</time>
      </trkpt>
      <trkpt lat="43.81625" lon="6.99577">
        <ele>1604</ele>
        <time>2013-02-19T11:07:19Z</time>
      </trkpt>
      <trkpt lat="43.81618" lon="6.9959">
        <ele>1606</ele>
        <time>2013-02-19T11:07:49Z</time>
      </trkpt>
      <trkpt lat="43.81612" lon="6.99593">
        <ele>1610</ele>
        <time>2013-02-19T11:08:24Z</time>
      </trkpt>
      <trkpt lat="43.81607" lon="6.99606">
        <ele>1614</ele>
        <time>2013-02-19T11:09:19Z</time>
      </trkpt>
      <trkpt lat="43.816" lon="6.99613">
        <ele>1615</ele>
        <time>2013-02-19T11:09:32Z</time>
      </trkpt>
      <trkpt lat="43.81592" lon="6.99623">
        <ele>1615</ele>
        <time>2013-02-19T11:09:48Z</time>
      </trkpt>
      <trkpt lat="43.81587" lon="6.99631">
        <ele>1617</ele>
        <time>2013-02-19T11:10:06Z</time>
      </trkpt>
      <trkpt lat="43.81578" lon="6.99657">
        <ele>1618</ele>
        <time>2013-02-19T11:10:49Z</time>
      </trkpt>
      <trkpt lat="43.81574" lon="6.99667">
        <ele>1619</ele>
        <time>2013-02-19T11:11:00Z</time>
      </trkpt>
      <trkpt lat="43.8157" lon="6.99678">
        <ele>1619</ele>
        <time>2013-02-19T11:11:14Z</time>
      </trkpt>
      <trkpt lat="43.81563" lon="6.99686">
        <ele>1619</ele>
        <time>2013-02-19T11:11:27Z</time>
      </trkpt>
      <trkpt lat="43.81556" lon="6.99694">
        <ele>1620</ele>
        <time>2013-02-19T11:11:41Z</time>
      </trkpt>
      <trkpt lat="43.81546" lon="6.99704">
        <ele>1620</ele>
        <time>2013-02-19T11:12:00Z</time>
      </trkpt>
      <trkpt lat="43.81538" lon="6.99708">
        <ele>1623</ele>
        <time>2013-02-19T11:13:15Z</time>
      </trkpt>
      <trkpt lat="43.81528" lon="6.99718">
        <ele>1623</ele>
        <time>2013-02-19T11:13:35Z</time>
      </trkpt>
      <trkpt lat="43.8152" lon="6.99725">
        <ele>1625</ele>
        <time>2013-02-19T11:13:49Z</time>
      </trkpt>
      <trkpt lat="43.81511" lon="6.99732">
        <ele>1627</ele>
        <time>2013-02-19T11:14:06Z</time>
      </trkpt>
      <trkpt lat="43.81507" lon="6.99737">
        <ele>1627</ele>
        <time>2013-02-19T11:14:20Z</time>
      </trkpt>
      <trkpt lat="43.81487" lon="6.99754">
        <ele>1627</ele>
        <time>2013-02-19T11:14:57Z</time>
      </trkpt>
      <trkpt lat="43.81477" lon="6.9977">
        <ele>1625</ele>
        <time>2013-02-19T11:15:21Z</time>
      </trkpt>
      <trkpt lat="43.81471" lon="6.99786">
        <ele>1624</ele>
        <time>2013-02-19T11:15:50Z</time>
      </trkpt>
      <trkpt lat="43.81465" lon="6.99794">
        <ele>1623</ele>
        <time>2013-02-19T11:15:58Z</time>
      </trkpt>
      <trkpt lat="43.81452" lon="6.99805">
        <ele>1626</ele>
        <time>2013-02-19T11:16:37Z</time>
      </trkpt>
      <trkpt lat="43.81446" lon="6.99813">
        <ele>1626</ele>
        <time>2013-02-19T11:16:51Z</time>
      </trkpt>
      <trkpt lat="43.81438" lon="6.99831">
        <ele>1627</ele>
        <time>2013-02-19T11:17:16Z</time>
      </trkpt>
      <trkpt lat="43.81435" lon="6.99842">
        <ele>1628</ele>
        <time>2013-02-19T11:17:28Z</time>
      </trkpt>
      <trkpt lat="43.81429" lon="6.99862">
        <ele>1629</ele>
        <time>2013-02-19T11:17:53Z</time>
      </trkpt>
      <trkpt lat="43.81425" lon="6.99876">
        <ele>1630</ele>
        <time>2013-02-19T11:18:13Z</time>
      </trkpt>
      <trkpt lat="43.81424" lon="6.99891">
        <ele>1631</ele>
        <time>2013-02-19T11:18:33Z</time>
      </trkpt>
      <trkpt lat="43.81421" lon="6.99904">
        <ele>1631</ele>
        <time>2013-02-19T11:18:51Z</time>
      </trkpt>
      <trkpt lat="43.81415" lon="6.99916">
        <ele>1633</ele>
        <time>2013-02-19T11:19:12Z</time>
      </trkpt>
      <trkpt lat="43.81405" lon="6.99943">
        <ele>1635</ele>
        <time>2013-02-19T11:20:01Z</time>
      </trkpt>
      <trkpt lat="43.81408" lon="6.9997">
        <ele>1638</ele>
        <time>2013-02-19T11:20:46Z</time>
      </trkpt>
      <trkpt lat="43.81401" lon="6.99982">
        <ele>1640</ele>
        <time>2013-02-19T11:21:00Z</time>
      </trkpt>
      <trkpt lat="43.81395" lon="6.99991">
        <ele>1642</ele>
        <time>2013-02-19T11:21:10Z</time>
      </trkpt>
      <trkpt lat="43.81399" lon="6.99994">
        <ele>1647</ele>
        <time>2013-02-19T11:22:56Z</time>
      </trkpt>
      <trkpt lat="43.81403" lon="7.00017">
        <ele>1648</ele>
        <time>2013-02-19T11:23:38Z</time>
      </trkpt>
      <trkpt lat="43.81402" lon="7.00031">
        <ele>1649</ele>
        <time>2013-02-19T11:23:55Z</time>
      </trkpt>
      <trkpt lat="43.81401" lon="7.00046">
        <ele>1651</ele>
        <time>2013-02-19T11:24:14Z</time>
      </trkpt>
      <trkpt lat="43.81401" lon="7.00057">
        <ele>1653</ele>
        <time>2013-02-19T11:24:33Z</time>
      </trkpt>
      <trkpt lat="43.814" lon="7.00075">
        <ele>1657</ele>
        <time>2013-02-19T11:25:02Z</time>
      </trkpt>
      <trkpt lat="43.81396" lon="7.00083">
        <ele>1658</ele>
        <time>2013-02-19T11:25:35Z</time>
      </trkpt>
      <trkpt lat="43.81388" lon="7.00089">
        <ele>1664</ele>
        <time>2013-02-19T11:33:46Z</time>
      </trkpt>
      <trkpt lat="43.8139" lon="7.00094">
        <ele>1666</ele>
        <time>2013-02-19T11:37:52Z</time>
      </trkpt>
      <trkpt lat="43.81401" lon="7.00076">
        <ele>1670</ele>
        <time>2013-02-19T12:09:44Z</time>
      </trkpt>
      <trkpt lat="43.8141" lon="7.00058">
        <ele>1669</ele>
        <time>2013-02-19T12:10:06Z</time>
      </trkpt>
      <trkpt lat="43.81425" lon="7.00056">
        <ele>1665</ele>
        <time>2013-02-19T12:10:33Z</time>
      </trkpt>
      <trkpt lat="43.81441" lon="7.00055">
        <ele>1660</ele>
        <time>2013-02-19T12:11:07Z</time>
      </trkpt>
      <trkpt lat="43.81452" lon="7.00039">
        <ele>1657</ele>
        <time>2013-02-19T12:11:24Z</time>
      </trkpt>
      <trkpt lat="43.81455" lon="7.00025">
        <ele>1655</ele>
        <time>2013-02-19T12:11:39Z</time>
      </trkpt>
      <trkpt lat="43.81462" lon="7.00019">
        <ele>1653</ele>
        <time>2013-02-19T12:11:53Z</time>
      </trkpt>
      <trkpt lat="43.81472" lon="7.00011">
        <ele>1651</ele>
        <time>2013-02-19T12:12:12Z</time>
      </trkpt>
      <trkpt lat="43.81486" lon="7.00002">
        <ele>1648</ele>
        <time>2013-02-19T12:12:31Z</time>
      </trkpt>
      <trkpt lat="43.815" lon="6.99995">
        <ele>1645</ele>
        <time>2013-02-19T12:12:49Z</time>
      </trkpt>
      <trkpt lat="43.81514" lon="6.99986">
        <ele>1642</ele>
        <time>2013-02-19T12:13:10Z</time>
      </trkpt>
      <trkpt lat="43.81527" lon="6.99978">
        <ele>1638</ele>
        <time>2013-02-19T12:13:45Z</time>
      </trkpt>
      <trkpt lat="43.81542" lon="6.9998">
        <ele>1630</ele>
        <time>2013-02-19T12:14:25Z</time>
      </trkpt>
      <trkpt lat="43.81552" lon="6.99973">
        <ele>1622</ele>
        <time>2013-02-19T12:16:13Z</time>
      </trkpt>
      <trkpt lat="43.81569" lon="6.99963">
        <ele>1613</ele>
        <time>2013-02-19T12:17:19Z</time>
      </trkpt>
      <trkpt lat="43.81584" lon="6.99955">
        <ele>1604</ele>
        <time>2013-02-19T12:18:14Z</time>
      </trkpt>
      <trkpt lat="43.816" lon="6.99951">
        <ele>1602</ele>
        <time>2013-02-19T12:18:24Z</time>
      </trkpt>
      <trkpt lat="43.81615" lon="6.99944">
        <ele>1600</ele>
        <time>2013-02-19T12:18:36Z</time>
      </trkpt>
      <trkpt lat="43.81632" lon="6.9994">
        <ele>1598</ele>
        <time>2013-02-19T12:18:54Z</time>
      </trkpt>
      <trkpt lat="43.81645" lon="6.99934">
        <ele>1593</ele>
        <time>2013-02-19T12:19:21Z</time>
      </trkpt>
      <trkpt lat="43.81659" lon="6.99929">
        <ele>1590</ele>
        <time>2013-02-19T12:19:38Z</time>
      </trkpt>
      <trkpt lat="43.81668" lon="6.99933">
        <ele>1586</ele>
        <time>2013-02-19T12:20:00Z</time>
      </trkpt>
      <trkpt lat="43.81684" lon="6.99936">
        <ele>1582</ele>
        <time>2013-02-19T12:20:42Z</time>
      </trkpt>
      <trkpt lat="43.81698" lon="6.99929">
        <ele>1578</ele>
        <time>2013-02-19T12:20:59Z</time>
      </trkpt>
      <trkpt lat="43.81716" lon="6.99924">
        <ele>1575</ele>
        <time>2013-02-19T12:21:20Z</time>
      </trkpt>
      <trkpt lat="43.81732" lon="6.99915">
        <ele>1570</ele>
        <time>2013-02-19T12:21:42Z</time>
      </trkpt>
      <trkpt lat="43.81746" lon="6.99906">
        <ele>1568</ele>
        <time>2013-02-19T12:21:54Z</time>
      </trkpt>
      <trkpt lat="43.81737" lon="6.99903">
        <ele>1558</ele>
        <time>2013-02-19T12:24:52Z</time>
      </trkpt>
      <trkpt lat="43.81718" lon="6.99913">
        <ele>1557</ele>
        <time>2013-02-19T12:25:16Z</time>
      </trkpt>
      <trkpt lat="43.81726" lon="6.99916">
        <ele>1563</ele>
        <time>2013-02-19T12:27:36Z</time>
      </trkpt>
      <trkpt lat="43.81741" lon="6.99908">
        <ele>1563</ele>
        <time>2013-02-19T12:27:53Z</time>
      </trkpt>
      <trkpt lat="43.81749" lon="6.99902">
        <ele>1563</ele>
        <time>2013-02-19T12:28:02Z</time>
      </trkpt>
      <trkpt lat="43.81764" lon="6.99892">
        <ele>1563</ele>
        <time>2013-02-19T12:28:18Z</time>
      </trkpt>
      <trkpt lat="43.81774" lon="6.99888">
        <ele>1562</ele>
        <time>2013-02-19T12:28:29Z</time>
      </trkpt>
      <trkpt lat="43.81783" lon="6.99885">
        <ele>1560</ele>
        <time>2013-02-19T12:28:38Z</time>
      </trkpt>
      <trkpt lat="43.81792" lon="6.99883">
        <ele>1559</ele>
        <time>2013-02-19T12:28:49Z</time>
      </trkpt>
      <trkpt lat="43.81806" lon="6.9988">
        <ele>1558</ele>
        <time>2013-02-19T12:29:03Z</time>
      </trkpt>
      <trkpt lat="43.81823" lon="6.99876">
        <ele>1557</ele>
        <time>2013-02-19T12:29:21Z</time>
      </trkpt>
      <trkpt lat="43.81831" lon="6.99872">
        <ele>1556</ele>
        <time>2013-02-19T12:29:30Z</time>
      </trkpt>
      <trkpt lat="43.81841" lon="6.99867">
        <ele>1555</ele>
        <time>2013-02-19T12:29:40Z</time>
      </trkpt>
      <trkpt lat="43.81849" lon="6.99863">
        <ele>1554</ele>
        <time>2013-02-19T12:29:48Z</time>
      </trkpt>
      <trkpt lat="43.81857" lon="6.99857">
        <ele>1553</ele>
        <time>2013-02-19T12:29:57Z</time>
      </trkpt>
      <trkpt lat="43.81868" lon="6.99853">
        <ele>1551</ele>
        <time>2013-02-19T12:30:11Z</time>
      </trkpt>
      <trkpt lat="43.81889" lon="6.99845">
        <ele>1550</ele>
        <time>2013-02-19T12:30:33Z</time>
      </trkpt>
      <trkpt lat="43.819" lon="6.99837">
        <ele>1547</ele>
        <time>2013-02-19T12:30:45Z</time>
      </trkpt>
      <trkpt lat="43.81908" lon="6.99832">
        <ele>1546</ele>
        <time>2013-02-19T12:30:55Z</time>
      </trkpt>
      <trkpt lat="43.81916" lon="6.99826">
        <ele>1545</ele>
        <time>2013-02-19T12:31:05Z</time>
      </trkpt>
      <trkpt lat="43.81924" lon="6.99821">
        <ele>1545</ele>
        <time>2013-02-19T12:31:13Z</time>
      </trkpt>
      <trkpt lat="43.81933" lon="6.99816">
        <ele>1545</ele>
        <time>2013-02-19T12:31:21Z</time>
      </trkpt>
      <trkpt lat="43.81941" lon="6.99812">
        <ele>1545</ele>
        <time>2013-02-19T12:31:32Z</time>
      </trkpt>
      <trkpt lat="43.81945" lon="6.99797">
        <ele>1547</ele>
        <time>2013-02-19T12:31:53Z</time>
      </trkpt>
      <trkpt lat="43.81949" lon="6.99787">
        <ele>1548</ele>
        <time>2013-02-19T12:32:02Z</time>
      </trkpt>
      <trkpt lat="43.81964" lon="6.99785">
        <ele>1548</ele>
        <time>2013-02-19T12:32:22Z</time>
      </trkpt>
      <trkpt lat="43.81975" lon="6.99789">
        <ele>1548</ele>
        <time>2013-02-19T12:32:33Z</time>
      </trkpt>
      <trkpt lat="43.81991" lon="6.99793">
        <ele>1548</ele>
        <time>2013-02-19T12:32:50Z</time>
      </trkpt>
      <trkpt lat="43.82" lon="6.99796">
        <ele>1548</ele>
        <time>2013-02-19T12:33:01Z</time>
      </trkpt>
      <trkpt lat="43.8201" lon="6.99794">
        <ele>1548</ele>
        <time>2013-02-19T12:33:10Z</time>
      </trkpt>
      <trkpt lat="43.82018" lon="6.99794">
        <ele>1548</ele>
        <time>2013-02-19T12:33:20Z</time>
      </trkpt>
      <trkpt lat="43.82027" lon="6.99795">
        <ele>1548</ele>
        <time>2013-02-19T12:33:30Z</time>
      </trkpt>
      <trkpt lat="43.82037" lon="6.99795">
        <ele>1548</ele>
        <time>2013-02-19T12:33:41Z</time>
      </trkpt>
      <trkpt lat="43.82046" lon="6.99793">
        <ele>1548</ele>
        <time>2013-02-19T12:33:50Z</time>
      </trkpt>
      <trkpt lat="43.82055" lon="6.99791">
        <ele>1548</ele>
        <time>2013-02-19T12:34:00Z</time>
      </trkpt>
      <trkpt lat="43.82067" lon="6.99791">
        <ele>1547</ele>
        <time>2013-02-19T12:34:18Z</time>
      </trkpt>
      <trkpt lat="43.82081" lon="6.99792">
        <ele>1545</ele>
        <time>2013-02-19T12:36:29Z</time>
      </trkpt>
      <trkpt lat="43.82091" lon="6.99787">
        <ele>1545</ele>
        <time>2013-02-19T12:36:41Z</time>
      </trkpt>
      <trkpt lat="43.82099" lon="6.99782">
        <ele>1545</ele>
        <time>2013-02-19T12:36:47Z</time>
      </trkpt>
      <trkpt lat="43.82107" lon="6.99776">
        <ele>1544</ele>
        <time>2013-02-19T12:36:56Z</time>
      </trkpt>
      <trkpt lat="43.8212" lon="6.99769">
        <ele>1544</ele>
        <time>2013-02-19T12:37:12Z</time>
      </trkpt>
      <trkpt lat="43.82128" lon="6.99765">
        <ele>1544</ele>
        <time>2013-02-19T12:37:20Z</time>
      </trkpt>
      <trkpt lat="43.82139" lon="6.99761">
        <ele>1544</ele>
        <time>2013-02-19T12:37:29Z</time>
      </trkpt>
      <trkpt lat="43.82148" lon="6.99758">
        <ele>1545</ele>
        <time>2013-02-19T12:37:37Z</time>
      </trkpt>
      <trkpt lat="43.82156" lon="6.99755">
        <ele>1545</ele>
        <time>2013-02-19T12:37:47Z</time>
      </trkpt>
      <trkpt lat="43.82164" lon="6.99751">
        <ele>1545</ele>
        <time>2013-02-19T12:37:58Z</time>
      </trkpt>
      <trkpt lat="43.82177" lon="6.99748">
        <ele>1546</ele>
        <time>2013-02-19T12:38:16Z</time>
      </trkpt>
      <trkpt lat="43.82181" lon="6.99746">
        <ele>1547</ele>
        <time>2013-02-19T12:39:18Z</time>
      </trkpt>
      <trkpt lat="43.82196" lon="6.99744">
        <ele>1547</ele>
        <time>2013-02-19T12:39:58Z</time>
      </trkpt>
      <trkpt lat="43.82206" lon="6.99745">
        <ele>1546</ele>
        <time>2013-02-19T12:40:09Z</time>
      </trkpt>
      <trkpt lat="43.82221" lon="6.99747">
        <ele>1544</ele>
        <time>2013-02-19T12:40:32Z</time>
      </trkpt>
      <trkpt lat="43.82235" lon="6.99745">
        <ele>1543</ele>
        <time>2013-02-19T12:40:54Z</time>
      </trkpt>
      <trkpt lat="43.82251" lon="6.99741">
        <ele>1542</ele>
        <time>2013-02-19T12:41:10Z</time>
      </trkpt>
      <trkpt lat="43.82259" lon="6.99742">
        <ele>1540</ele>
        <time>2013-02-19T12:41:19Z</time>
      </trkpt>
      <trkpt lat="43.82274" lon="6.9975">
        <ele>1539</ele>
        <time>2013-02-19T12:41:37Z</time>
      </trkpt>
      <trkpt lat="43.82287" lon="6.99755">
        <ele>1538</ele>
        <time>2013-02-19T12:41:54Z</time>
      </trkpt>
      <trkpt lat="43.82301" lon="6.99755">
        <ele>1537</ele>
        <time>2013-02-19T12:42:12Z</time>
      </trkpt>
      <trkpt lat="43.82303" lon="6.99743">
        <ele>1537</ele>
        <time>2013-02-19T12:42:19Z</time>
      </trkpt>
      <trkpt lat="43.82303" lon="6.99731">
        <ele>1537</ele>
        <time>2013-02-19T12:42:26Z</time>
      </trkpt>
      <trkpt lat="43.82305" lon="6.99712">
        <ele>1536</ele>
        <time>2013-02-19T12:42:39Z</time>
      </trkpt>
      <trkpt lat="43.82315" lon="6.99695">
        <ele>1535</ele>
        <time>2013-02-19T12:42:59Z</time>
      </trkpt>
      <trkpt lat="43.82316" lon="6.9969">
        <ele>1532</ele>
        <time>2013-02-19T12:43:55Z</time>
      </trkpt>
      <trkpt lat="43.82332" lon="6.99682">
        <ele>1532</ele>
        <time>2013-02-19T12:44:40Z</time>
      </trkpt>
      <trkpt lat="43.82348" lon="6.99677">
        <ele>1533</ele>
        <time>2013-02-19T12:44:54Z</time>
      </trkpt>
      <trkpt lat="43.82362" lon="6.99667">
        <ele>1532</ele>
        <time>2013-02-19T12:45:07Z</time>
      </trkpt>
      <trkpt lat="43.82373" lon="6.99652">
        <ele>1531</ele>
        <time>2013-02-19T12:45:21Z</time>
      </trkpt>
      <trkpt lat="43.82375" lon="6.9963">
        <ele>1529</ele>
        <time>2013-02-19T12:45:38Z</time>
      </trkpt>
      <trkpt lat="43.82378" lon="6.99609">
        <ele>1528</ele>
        <time>2013-02-19T12:45:54Z</time>
      </trkpt>
      <trkpt lat="43.82378" lon="6.99588">
        <ele>1528</ele>
        <time>2013-02-19T12:46:10Z</time>
      </trkpt>
      <trkpt lat="43.82379" lon="6.99572">
        <ele>1528</ele>
        <time>2013-02-19T12:46:21Z</time>
      </trkpt>
      <trkpt lat="43.82381" lon="6.99558">
        <ele>1527</ele>
        <time>2013-02-19T12:46:30Z</time>
      </trkpt>
      <trkpt lat="43.82383" lon="6.99544">
        <ele>1527</ele>
        <time>2013-02-19T12:46:42Z</time>
      </trkpt>
      <trkpt lat="43.82388" lon="6.99522">
        <ele>1526</ele>
        <time>2013-02-19T12:46:58Z</time>
      </trkpt>
      <trkpt lat="43.82388" lon="6.995">
        <ele>1526</ele>
        <time>2013-02-19T12:47:14Z</time>
      </trkpt>
      <trkpt lat="43.82382" lon="6.99465">
        <ele>1524</ele>
        <time>2013-02-19T12:47:48Z</time>
      </trkpt>
      <trkpt lat="43.82384" lon="6.9945">
        <ele>1522</ele>
        <time>2013-02-19T12:47:57Z</time>
      </trkpt>
      <trkpt lat="43.82394" lon="6.99434">
        <ele>1519</ele>
        <time>2013-02-19T12:48:06Z</time>
      </trkpt>
      <trkpt lat="43.82406" lon="6.99417">
        <ele>1518</ele>
        <time>2013-02-19T12:48:15Z</time>
      </trkpt>
      <trkpt lat="43.82409" lon="6.99403">
        <ele>1516</ele>
        <time>2013-02-19T12:48:26Z</time>
      </trkpt>
      <trkpt lat="43.82404" lon="6.9939">
        <ele>1515</ele>
        <time>2013-02-19T12:48:35Z</time>
      </trkpt>
      <trkpt lat="43.82396" lon="6.99371">
        <ele>1514</ele>
        <time>2013-02-19T12:48:53Z</time>
      </trkpt>
      <trkpt lat="43.82393" lon="6.9935">
        <ele>1513</ele>
        <time>2013-02-19T12:49:09Z</time>
      </trkpt>
      <trkpt lat="43.8239" lon="6.99328">
        <ele>1512</ele>
        <time>2013-02-19T12:49:26Z</time>
      </trkpt>
      <trkpt lat="43.82383" lon="6.99308">
        <ele>1511</ele>
        <time>2013-02-19T12:49:47Z</time>
      </trkpt>
      <trkpt lat="43.82374" lon="6.9929">
        <ele>1511</ele>
        <time>2013-02-19T12:50:04Z</time>
      </trkpt>
      <trkpt lat="43.82364" lon="6.99275">
        <ele>1511</ele>
        <time>2013-02-19T12:50:17Z</time>
      </trkpt>
      <trkpt lat="43.82357" lon="6.99269">
        <ele>1511</ele>
        <time>2013-02-19T12:50:27Z</time>
      </trkpt>
      <trkpt lat="43.82342" lon="6.99262">
        <ele>1509</ele>
        <time>2013-02-19T12:50:59Z</time>
      </trkpt>
      <trkpt lat="43.82337" lon="6.99251">
        <ele>1509</ele>
        <time>2013-02-19T12:51:09Z</time>
      </trkpt>
      <trkpt lat="43.82329" lon="6.9923">
        <ele>1508</ele>
        <time>2013-02-19T12:51:24Z</time>
      </trkpt>
      <trkpt lat="43.82323" lon="6.99217">
        <ele>1507</ele>
        <time>2013-02-19T12:51:33Z</time>
      </trkpt>
      <trkpt lat="43.82321" lon="6.99206">
        <ele>1506</ele>
        <time>2013-02-19T12:51:42Z</time>
      </trkpt>
      <trkpt lat="43.82317" lon="6.99191">
        <ele>1505</ele>
        <time>2013-02-19T12:51:55Z</time>
      </trkpt>
      <trkpt lat="43.82314" lon="6.99178">
        <ele>1505</ele>
        <time>2013-02-19T12:52:10Z</time>
      </trkpt>
      <trkpt lat="43.82314" lon="6.99164">
        <ele>1505</ele>
        <time>2013-02-19T12:52:25Z</time>
      </trkpt>
      <trkpt lat="43.82313" lon="6.99153">
        <ele>1505</ele>
        <time>2013-02-19T12:52:37Z</time>
      </trkpt>
      <trkpt lat="43.82315" lon="6.99141">
        <ele>1506</ele>
        <time>2013-02-19T12:52:48Z</time>
      </trkpt>
      <trkpt lat="43.82326" lon="6.99123">
        <ele>1510</ele>
        <time>2013-02-19T12:54:30Z</time>
      </trkpt>
      <trkpt lat="43.82338" lon="6.99109">
        <ele>1510</ele>
        <time>2013-02-19T12:54:55Z</time>
      </trkpt>
      <trkpt lat="43.82345" lon="6.99089">
        <ele>1511</ele>
        <time>2013-02-19T12:55:17Z</time>
      </trkpt>
      <trkpt lat="43.82353" lon="6.99077">
        <ele>1511</ele>
        <time>2013-02-19T12:55:31Z</time>
      </trkpt>
      <trkpt lat="43.82352" lon="6.99065">
        <ele>1511</ele>
        <time>2013-02-19T12:55:43Z</time>
      </trkpt>
      <trkpt lat="43.82352" lon="6.99053">
        <ele>1511</ele>
        <time>2013-02-19T12:55:54Z</time>
      </trkpt>
      <trkpt lat="43.82352" lon="6.99035">
        <ele>1511</ele>
        <time>2013-02-19T12:56:06Z</time>
      </trkpt>
      <trkpt lat="43.82354" lon="6.99022">
        <ele>1511</ele>
        <time>2013-02-19T12:56:15Z</time>
      </trkpt>
      <trkpt lat="43.82357" lon="6.99008">
        <ele>1511</ele>
        <time>2013-02-19T12:56:26Z</time>
      </trkpt>
      <trkpt lat="43.82361" lon="6.98987">
        <ele>1511</ele>
        <time>2013-02-19T12:56:43Z</time>
      </trkpt>
      <trkpt lat="43.82375" lon="6.99003">
        <ele>1509</ele>
        <time>2013-02-19T12:58:14Z</time>
      </trkpt>
      <trkpt lat="43.8239" lon="6.98995">
        <ele>1509</ele>
        <time>2013-02-19T12:58:34Z</time>
      </trkpt>
      <trkpt lat="43.82395" lon="6.98975">
        <ele>1509</ele>
        <time>2013-02-19T12:58:46Z</time>
      </trkpt>
      <trkpt lat="43.82398" lon="6.98964">
        <ele>1508</ele>
        <time>2013-02-19T12:58:54Z</time>
      </trkpt>
      <trkpt lat="43.82399" lon="6.98946">
        <ele>1508</ele>
        <time>2013-02-19T12:59:09Z</time>
      </trkpt>
      <trkpt lat="43.82395" lon="6.98929">
        <ele>1507</ele>
        <time>2013-02-19T12:59:27Z</time>
      </trkpt>
      <trkpt lat="43.82389" lon="6.98905">
        <ele>1504</ele>
        <time>2013-02-19T13:02:37Z</time>
      </trkpt>
      <trkpt lat="43.82391" lon="6.98871">
        <ele>1504</ele>
        <time>2013-02-19T13:02:49Z</time>
      </trkpt>
      <trkpt lat="43.82393" lon="6.98847">
        <ele>1503</ele>
        <time>2013-02-19T13:02:54Z</time>
      </trkpt>
      <trkpt lat="43.82397" lon="6.98819">
        <ele>1502</ele>
        <time>2013-02-19T13:03:01Z</time>
      </trkpt>
      <trkpt lat="43.82399" lon="6.98794">
        <ele>1502</ele>
        <time>2013-02-19T13:03:08Z</time>
      </trkpt>
      <trkpt lat="43.82396" lon="6.98767">
        <ele>1501</ele>
        <time>2013-02-19T13:03:18Z</time>
      </trkpt>
      <trkpt lat="43.82388" lon="6.98748">
        <ele>1500</ele>
        <time>2013-02-19T13:03:28Z</time>
      </trkpt>
      <trkpt lat="43.82383" lon="6.98728">
        <ele>1499</ele>
        <time>2013-02-19T13:03:39Z</time>
      </trkpt>
      <trkpt lat="43.82379" lon="6.98706">
        <ele>1498</ele>
        <time>2013-02-19T13:03:54Z</time>
      </trkpt>
      <trkpt lat="43.82377" lon="6.98684">
        <ele>1499</ele>
        <time>2013-02-19T13:04:07Z</time>
      </trkpt>
      <trkpt lat="43.82375" lon="6.9866">
        <ele>1499</ele>
        <time>2013-02-19T13:04:20Z</time>
      </trkpt>
      <trkpt lat="43.82373" lon="6.98635">
        <ele>1499</ele>
        <time>2013-02-19T13:04:31Z</time>
      </trkpt>
      <trkpt lat="43.82378" lon="6.98603">
        <ele>1500</ele>
        <time>2013-02-19T13:04:46Z</time>
      </trkpt>
      <trkpt lat="43.82381" lon="6.98581">
        <ele>1499</ele>
        <time>2013-02-19T13:04:56Z</time>
      </trkpt>
      <trkpt lat="43.82381" lon="6.98559">
        <ele>1499</ele>
        <time>2013-02-19T13:05:10Z</time>
      </trkpt>
      <trkpt lat="43.82384" lon="6.98527">
        <ele>1499</ele>
        <time>2013-02-19T13:05:26Z</time>
      </trkpt>
      <trkpt lat="43.82387" lon="6.98506">
        <ele>1498</ele>
        <time>2013-02-19T13:05:37Z</time>
      </trkpt>
      <trkpt lat="43.82391" lon="6.98484">
        <ele>1497</ele>
        <time>2013-02-19T13:05:49Z</time>
      </trkpt>
      <trkpt lat="43.82393" lon="6.98462">
        <ele>1497</ele>
        <time>2013-02-19T13:06:02Z</time>
      </trkpt>
      <trkpt lat="43.82394" lon="6.98436">
        <ele>1496</ele>
        <time>2013-02-19T13:06:18Z</time>
      </trkpt>
      <trkpt lat="43.82396" lon="6.98414">
        <ele>1495</ele>
        <time>2013-02-19T13:06:29Z</time>
      </trkpt>
      <trkpt lat="43.82411" lon="6.98404">
        <ele>1494</ele>
        <time>2013-02-19T13:06:47Z</time>
      </trkpt>
      <trkpt lat="43.82426" lon="6.98399">
        <ele>1492</ele>
        <time>2013-02-19T13:07:04Z</time>
      </trkpt>
      <trkpt lat="43.82437" lon="6.98396">
        <ele>1491</ele>
        <time>2013-02-19T13:07:30Z</time>
      </trkpt>
      <trkpt lat="43.82452" lon="6.98389">
        <ele>1490</ele>
        <time>2013-02-19T13:07:46Z</time>
      </trkpt>
      <trkpt lat="43.82461" lon="6.98383">
        <ele>1490</ele>
        <time>2013-02-19T13:08:22Z</time>
      </trkpt>
      <trkpt lat="43.8248" lon="6.98388">
        <ele>1489</ele>
        <time>2013-02-19T13:08:56Z</time>
      </trkpt>
      <trkpt lat="43.82496" lon="6.98391">
        <ele>1488</ele>
        <time>2013-02-19T13:09:09Z</time>
      </trkpt>
      <trkpt lat="43.82513" lon="6.98393">
        <ele>1488</ele>
        <time>2013-02-19T13:09:23Z</time>
      </trkpt>
      <trkpt lat="43.82529" lon="6.98399">
        <ele>1487</ele>
        <time>2013-02-19T13:09:39Z</time>
      </trkpt>
      <trkpt lat="43.82545" lon="6.98399">
        <ele>1487</ele>
        <time>2013-02-19T13:09:52Z</time>
      </trkpt>
      <trkpt lat="43.82567" lon="6.9839">
        <ele>1486</ele>
        <time>2013-02-19T13:10:19Z</time>
      </trkpt>
      <trkpt lat="43.82581" lon="6.98374">
        <ele>1485</ele>
        <time>2013-02-19T13:10:43Z</time>
      </trkpt>
      <trkpt lat="43.82589" lon="6.98355">
        <ele>1484</ele>
        <time>2013-02-19T13:11:05Z</time>
      </trkpt>
      <trkpt lat="43.82593" lon="6.98331">
        <ele>1482</ele>
        <time>2013-02-19T13:11:17Z</time>
      </trkpt>
      <trkpt lat="43.82592" lon="6.98314">
        <ele>1480</ele>
        <time>2013-02-19T13:11:44Z</time>
      </trkpt>
      <trkpt lat="43.82598" lon="6.98291">
        <ele>1477</ele>
        <time>2013-02-19T13:12:11Z</time>
      </trkpt>
      <trkpt lat="43.8261" lon="6.98268">
        <ele>1475</ele>
        <time>2013-02-19T13:12:29Z</time>
      </trkpt>
      <trkpt lat="43.82623" lon="6.98257">
        <ele>1474</ele>
        <time>2013-02-19T13:12:44Z</time>
      </trkpt>
      <trkpt lat="43.82647" lon="6.98257">
        <ele>1473</ele>
        <time>2013-02-19T13:13:04Z</time>
      </trkpt>
      <trkpt lat="43.82663" lon="6.98258">
        <ele>1471</ele>
        <time>2013-02-19T13:13:27Z</time>
      </trkpt>
      <trkpt lat="43.82678" lon="6.9825">
        <ele>1470</ele>
        <time>2013-02-19T13:13:42Z</time>
      </trkpt>
      <trkpt lat="43.82691" lon="6.98237">
        <ele>1467</ele>
        <time>2013-02-19T13:13:57Z</time>
      </trkpt>
      <trkpt lat="43.82704" lon="6.98226">
        <ele>1465</ele>
        <time>2013-02-19T13:14:11Z</time>
      </trkpt>
      <trkpt lat="43.82716" lon="6.98212">
        <ele>1463</ele>
        <time>2013-02-19T13:14:28Z</time>
      </trkpt>
      <trkpt lat="43.82724" lon="6.98193">
        <ele>1461</ele>
        <time>2013-02-19T13:14:46Z</time>
      </trkpt>
      <trkpt lat="43.82735" lon="6.98177">
        <ele>1460</ele>
        <time>2013-02-19T13:15:04Z</time>
      </trkpt>
      <trkpt lat="43.82746" lon="6.98158">
        <ele>1456</ele>
        <time>2013-02-19T13:15:28Z</time>
      </trkpt>
      <trkpt lat="43.8276" lon="6.98148">
        <ele>1453</ele>
        <time>2013-02-19T13:15:42Z</time>
      </trkpt>
      <trkpt lat="43.82777" lon="6.9815">
        <ele>1452</ele>
        <time>2013-02-19T13:15:56Z</time>
      </trkpt>
      <trkpt lat="43.82769" lon="6.98139">
        <ele>1449</ele>
        <time>2013-02-19T13:17:47Z</time>
      </trkpt>
      <trkpt lat="43.82762" lon="6.98136">
        <ele>1450</ele>
        <time>2013-02-19T13:18:59Z</time>
      </trkpt>
      <trkpt lat="43.82754" lon="6.98132">
        <ele>1452</ele>
        <time>2013-02-19T13:20:43Z</time>
      </trkpt>
      <trkpt lat="43.82747" lon="6.9812">
        <ele>1451</ele>
        <time>2013-02-19T13:20:53Z</time>
      </trkpt>
      <trkpt lat="43.82742" lon="6.98106">
        <ele>1451</ele>
        <time>2013-02-19T13:21:04Z</time>
      </trkpt>
      <trkpt lat="43.8274" lon="6.98094">
        <ele>1450</ele>
        <time>2013-02-19T13:21:13Z</time>
      </trkpt>
      <trkpt lat="43.8274" lon="6.98087">
        <ele>1449</ele>
        <time>2013-02-19T13:21:28Z</time>
      </trkpt>
      <trkpt lat="43.8274" lon="6.98067">
        <ele>1448</ele>
        <time>2013-02-19T13:21:51Z</time>
      </trkpt>
      <trkpt lat="43.82742" lon="6.98051">
        <ele>1447</ele>
        <time>2013-02-19T13:22:07Z</time>
      </trkpt>
      <trkpt lat="43.82746" lon="6.98034">
        <ele>1447</ele>
        <time>2013-02-19T13:22:21Z</time>
      </trkpt>
      <trkpt lat="43.8275" lon="6.98023">
        <ele>1447</ele>
        <time>2013-02-19T13:22:30Z</time>
      </trkpt>
      <trkpt lat="43.82755" lon="6.98011">
        <ele>1446</ele>
        <time>2013-02-19T13:22:45Z</time>
      </trkpt>
      <trkpt lat="43.82759" lon="6.98002">
        <ele>1446</ele>
        <time>2013-02-19T13:23:04Z</time>
      </trkpt>
      <trkpt lat="43.82765" lon="6.97984">
        <ele>1444</ele>
        <time>2013-02-19T13:23:22Z</time>
      </trkpt>
      <trkpt lat="43.8277" lon="6.97973">
        <ele>1443</ele>
        <time>2013-02-19T13:23:31Z</time>
      </trkpt>
      <trkpt lat="43.82776" lon="6.97965">
        <ele>1441</ele>
        <time>2013-02-19T13:23:39Z</time>
      </trkpt>
      <trkpt lat="43.82785" lon="6.97947">
        <ele>1438</ele>
        <time>2013-02-19T13:24:01Z</time>
      </trkpt>
      <trkpt lat="43.82786" lon="6.97934">
        <ele>1437</ele>
        <time>2013-02-19T13:24:10Z</time>
      </trkpt>
      <trkpt lat="43.82789" lon="6.97928">
        <ele>1436</ele>
        <time>2013-02-19T13:24:21Z</time>
      </trkpt>
      <trkpt lat="43.82792" lon="6.97916">
        <ele>1435</ele>
        <time>2013-02-19T13:24:31Z</time>
      </trkpt>
      <trkpt lat="43.82796" lon="6.97904">
        <ele>1435</ele>
        <time>2013-02-19T13:24:38Z</time>
      </trkpt>
      <trkpt lat="43.82801" lon="6.97895">
        <ele>1435</ele>
        <time>2013-02-19T13:24:46Z</time>
      </trkpt>
      <trkpt lat="43.82811" lon="6.97887">
        <ele>1435</ele>
        <time>2013-02-19T13:24:59Z</time>
      </trkpt>
      <trkpt lat="43.82827" lon="6.97877">
        <ele>1435</ele>
        <time>2013-02-19T13:25:15Z</time>
      </trkpt>
      <trkpt lat="43.82841" lon="6.97867">
        <ele>1435</ele>
        <time>2013-02-19T13:25:28Z</time>
      </trkpt>
      <trkpt lat="43.82848" lon="6.97859">
        <ele>1435</ele>
        <time>2013-02-19T13:25:36Z</time>
      </trkpt>
      <trkpt lat="43.82862" lon="6.97844">
        <ele>1435</ele>
        <time>2013-02-19T13:25:53Z</time>
      </trkpt>
      <trkpt lat="43.82864" lon="6.97826">
        <ele>1433</ele>
        <time>2013-02-19T13:26:11Z</time>
      </trkpt>
      <trkpt lat="43.82865" lon="6.97813">
        <ele>1432</ele>
        <time>2013-02-19T13:26:17Z</time>
      </trkpt>
      <trkpt lat="43.82867" lon="6.97797">
        <ele>1431</ele>
        <time>2013-02-19T13:26:25Z</time>
      </trkpt>
      <trkpt lat="43.82866" lon="6.97773">
        <ele>1430</ele>
        <time>2013-02-19T13:26:43Z</time>
      </trkpt>
      <trkpt lat="43.82864" lon="6.97752">
        <ele>1428</ele>
        <time>2013-02-19T13:27:00Z</time>
      </trkpt>
      <trkpt lat="43.82865" lon="6.9774">
        <ele>1427</ele>
        <time>2013-02-19T13:27:08Z</time>
      </trkpt>
      <trkpt lat="43.82872" lon="6.97721">
        <ele>1425</ele>
        <time>2013-02-19T13:27:21Z</time>
      </trkpt>
      <trkpt lat="43.82877" lon="6.97712">
        <ele>1424</ele>
        <time>2013-02-19T13:27:28Z</time>
      </trkpt>
      <trkpt lat="43.82885" lon="6.97695">
        <ele>1424</ele>
        <time>2013-02-19T13:27:41Z</time>
      </trkpt>
      <trkpt lat="43.82896" lon="6.97676">
        <ele>1423</ele>
        <time>2013-02-19T13:27:58Z</time>
      </trkpt>
      <trkpt lat="43.82902" lon="6.97668">
        <ele>1422</ele>
        <time>2013-02-19T13:28:06Z</time>
      </trkpt>
      <trkpt lat="43.82912" lon="6.97649">
        <ele>1421</ele>
        <time>2013-02-19T13:28:26Z</time>
      </trkpt>
      <trkpt lat="43.82917" lon="6.97634">
        <ele>1420</ele>
        <time>2013-02-19T13:28:36Z</time>
      </trkpt>
      <trkpt lat="43.82916" lon="6.97622">
        <ele>1418</ele>
        <time>2013-02-19T13:28:45Z</time>
      </trkpt>
      <trkpt lat="43.82908" lon="6.97612">
        <ele>1417</ele>
        <time>2013-02-19T13:28:55Z</time>
      </trkpt>
      <trkpt lat="43.82901" lon="6.97604">
        <ele>1416</ele>
        <time>2013-02-19T13:29:02Z</time>
      </trkpt>
      <trkpt lat="43.82894" lon="6.97596">
        <ele>1416</ele>
        <time>2013-02-19T13:29:09Z</time>
      </trkpt>
      <trkpt lat="43.82886" lon="6.97585">
        <ele>1415</ele>
        <time>2013-02-19T13:29:22Z</time>
      </trkpt>
      <trkpt lat="43.82877" lon="6.97574">
        <ele>1414</ele>
        <time>2013-02-19T13:29:33Z</time>
      </trkpt>
      <trkpt lat="43.82869" lon="6.97564">
        <ele>1414</ele>
        <time>2013-02-19T13:29:44Z</time>
      </trkpt>
      <trkpt lat="43.82865" lon="6.9755">
        <ele>1414</ele>
        <time>2013-02-19T13:30:00Z</time>
      </trkpt>
      <trkpt lat="43.82863" lon="6.97528">
        <ele>1414</ele>
        <time>2013-02-19T13:30:15Z</time>
      </trkpt>
      <trkpt lat="43.82863" lon="6.97506">
        <ele>1413</ele>
        <time>2013-02-19T13:30:34Z</time>
      </trkpt>
      <trkpt lat="43.82868" lon="6.97486">
        <ele>1411</ele>
        <time>2013-02-19T13:30:51Z</time>
      </trkpt>
      <trkpt lat="43.82872" lon="6.97475">
        <ele>1410</ele>
        <time>2013-02-19T13:31:00Z</time>
      </trkpt>
      <trkpt lat="43.82878" lon="6.97466">
        <ele>1409</ele>
        <time>2013-02-19T13:31:09Z</time>
      </trkpt>
      <trkpt lat="43.82877" lon="6.97442">
        <ele>1405</ele>
        <time>2013-02-19T13:32:28Z</time>
      </trkpt>
      <trkpt lat="43.82886" lon="6.97423">
        <ele>1402</ele>
        <time>2013-02-19T13:32:42Z</time>
      </trkpt>
      <trkpt lat="43.82897" lon="6.97407">
        <ele>1399</ele>
        <time>2013-02-19T13:32:55Z</time>
      </trkpt>
      <trkpt lat="43.82912" lon="6.974">
        <ele>1397</ele>
        <time>2013-02-19T13:33:09Z</time>
      </trkpt>
      <trkpt lat="43.82926" lon="6.97407">
        <ele>1396</ele>
        <time>2013-02-19T13:33:18Z</time>
      </trkpt>
      <trkpt lat="43.82941" lon="6.97423">
        <ele>1395</ele>
        <time>2013-02-19T13:33:26Z</time>
      </trkpt>
      <trkpt lat="43.82952" lon="6.97438">
        <ele>1394</ele>
        <time>2013-02-19T13:33:38Z</time>
      </trkpt>
      <trkpt lat="43.82965" lon="6.97451">
        <ele>1393</ele>
        <time>2013-02-19T13:33:52Z</time>
      </trkpt>
      <trkpt lat="43.82979" lon="6.97459">
        <ele>1392</ele>
        <time>2013-02-19T13:34:06Z</time>
      </trkpt>
      <trkpt lat="43.82995" lon="6.97463">
        <ele>1392</ele>
        <time>2013-02-19T13:34:24Z</time>
      </trkpt>
      <trkpt lat="43.83011" lon="6.97462">
        <ele>1391</ele>
        <time>2013-02-19T13:34:41Z</time>
      </trkpt>
      <trkpt lat="43.83034" lon="6.97453">
        <ele>1391</ele>
        <time>2013-02-19T13:35:03Z</time>
      </trkpt>
      <trkpt lat="43.83051" lon="6.97441">
        <ele>1389</ele>
        <time>2013-02-19T13:35:18Z</time>
      </trkpt>
      <trkpt lat="43.83061" lon="6.97428">
        <ele>1388</ele>
        <time>2013-02-19T13:35:32Z</time>
      </trkpt>
      <trkpt lat="43.83068" lon="6.97421">
        <ele>1387</ele>
        <time>2013-02-19T13:35:40Z</time>
      </trkpt>
      <trkpt lat="43.83079" lon="6.9741">
        <ele>1386</ele>
        <time>2013-02-19T13:35:54Z</time>
      </trkpt>
      <trkpt lat="43.83092" lon="6.97399">
        <ele>1385</ele>
        <time>2013-02-19T13:36:07Z</time>
      </trkpt>
      <trkpt lat="43.83103" lon="6.97385">
        <ele>1385</ele>
        <time>2013-02-19T13:36:21Z</time>
      </trkpt>
      <trkpt lat="43.83107" lon="6.97375">
        <ele>1385</ele>
        <time>2013-02-19T13:36:29Z</time>
      </trkpt>
      <trkpt lat="43.83114" lon="6.97359">
        <ele>1386</ele>
        <time>2013-02-19T13:36:43Z</time>
      </trkpt>
      <trkpt lat="43.8312" lon="6.9734">
        <ele>1386</ele>
        <time>2013-02-19T13:37:04Z</time>
      </trkpt>
      <trkpt lat="43.83129" lon="6.97332">
        <ele>1385</ele>
        <time>2013-02-19T13:37:14Z</time>
      </trkpt>
      <trkpt lat="43.83133" lon="6.97326">
        <ele>1391</ele>
        <time>2013-02-19T13:41:01Z</time>
      </trkpt>
    </trkseg>
  </trk>
</gpx>